sensor_id;sensor_type;location;lat;lon;timestamp;pressure;altitude;pressure_sealevel;temperature;humidity
36454;BME280;22478;51.740;-1.314;2023-03-03T00:01:18;101509.84;;;-4.74;100.00
36454;BME280;22478;51.740;-1.314;2023-03-03T00:03:45;101514.34;;;-4.42;100.00
36454;BME280;22478;51.740;-1.314;2023-03-03T00:06:13;101504.23;;;-4.34;100.00
36454;BME280;22478;51.740;-1.314;2023-03-03T00:08:41;101502.67;;;-4.13;100.00
36454;BME280;22478;51.740;-1.314;2023-03-03T00:11:09;101506.68;;;-4.65;100.00
36454;BME280;22478;51.740;-1.314;2023-03-03T00:13:44;101509.51;;;-4.00;100.00
36454;BME280;22478;51.740;-1.314;2023-03-03T00:16:15;101524.59;;;-5.41;100.00
36454;BME280;22478;51.740;-1.314;2023-03-03T00:18:44;101521.78;;;-5.16;100.00
36454;BME280;22478;51.740;-1.314;2023-03-03T00:21:30;101523.80;;;-5.00;100.00
36454;BME280;22478;51.740;-1.314;2023-03-03T00:24:13;101520.43;;;-5.10;100.00
36454;BME280;22478;51.740;-1.314;2023-03-03T00:26:44;101522.61;;;-4.93;100.00
36454;BME280;22478;51.740;-1.314;2023-03-03T00:29:29;101522.73;;;-4.40;100.00
36454;BME280;22478;51.740;-1.314;2023-03-03T00:32:15;101519.76;;;-3.77;100.00
36454;BME280;22478;51.740;-1.314;2023-03-03T00:34:44;101528.35;;;-3.48;100.00
36454;BME280;22478;51.740;-1.314;2023-03-03T00:37:24;101528.56;;;-4.80;100.00
36454;BME280;22478;51.740;-1.314;2023-03-03T00:39:53;101520.11;;;-4.14;100.00
36454;BME280;22478;51.740;-1.314;2023-03-03T00:42:26;101524.20;;;-4.35;100.00
36454;BME280;22478;51.740;-1.314;2023-03-03T00:44:56;101526.44;;;-3.53;100.00
36454;BME280;22478;51.740;-1.314;2023-03-03T00:47:25;101526.41;;;-4.20;100.00
36454;BME280;22478;51.740;-1.314;2023-03-03T00:49:54;101524.67;;;-4.15;100.00
36454;BME280;22478;51.740;-1.314;2023-03-03T00:52:26;101521.79;;;-4.14;100.00
36454;BME280;22478;51.740;-1.314;2023-03-03T00:54:54;101518.38;;;-4.28;100.00
36454;BME280;22478;51.740;-1.314;2023-03-03T00:57:21;101513.65;;;-3.57;100.00
36454;BME280;22478;51.740;-1.314;2023-03-03T00:59:48;101523.75;;;-4.82;100.00
36454;BME280;22478;51.740;-1.314;2023-03-03T01:02:15;101515.47;;;-3.05;100.00
36454;BME280;22478;51.740;-1.314;2023-03-03T01:04:44;101517.24;;;-3.96;100.00
36454;BME280;22478;51.740;-1.314;2023-03-03T01:07:15;101517.46;;;-4.18;100.00
36454;BME280;22478;51.740;-1.314;2023-03-03T01:09:42;101518.78;;;-4.09;100.00
36454;BME280;22478;51.740;-1.314;2023-03-03T01:12:10;101521.00;;;-3.38;100.00
36454;BME280;22478;51.740;-1.314;2023-03-03T01:14:38;101524.27;;;-3.51;100.00
36454;BME280;22478;51.740;-1.314;2023-03-03T01:17:06;101528.77;;;-4.88;100.00
36454;BME280;22478;51.740;-1.314;2023-03-03T01:19:33;101533.63;;;-4.51;100.00
36454;BME280;22478;51.740;-1.314;2023-03-03T01:22:01;101537.08;;;-4.33;100.00
36454;BME280;22478;51.740;-1.314;2023-03-03T01:24:28;101538.71;;;-3.71;100.00
36454;BME280;22478;51.740;-1.314;2023-03-03T01:26:55;101549.98;;;-4.54;100.00
36454;BME280;22478;51.740;-1.314;2023-03-03T01:29:23;101549.93;;;-4.98;100.00
36454;BME280;22478;51.740;-1.314;2023-03-03T01:31:50;101544.51;;;-4.18;100.00
36454;BME280;22478;51.740;-1.314;2023-03-03T01:34:17;101547.91;;;-3.80;100.00
36454;BME280;22478;51.740;-1.314;2023-03-03T01:36:44;101546.06;;;-3.48;100.00
36454;BME280;22478;51.740;-1.314;2023-03-03T01:39:12;101542.27;;;-3.52;100.00
36454;BME280;22478;51.740;-1.314;2023-03-03T01:41:39;101551.09;;;-3.92;100.00
36454;BME280;22478;51.740;-1.314;2023-03-03T01:44:11;101543.21;;;-2.91;100.00
36454;BME280;22478;51.740;-1.314;2023-03-03T01:46:47;101542.37;;;-3.42;100.00
36454;BME280;22478;51.740;-1.314;2023-03-03T01:49:20;101546.46;;;-2.34;100.00
36454;BME280;22478;51.740;-1.314;2023-03-03T01:51:53;101541.30;;;-1.96;100.00
36454;BME280;22478;51.740;-1.314;2023-03-03T01:54:24;101542.59;;;-2.16;100.00
36454;BME280;22478;51.740;-1.314;2023-03-03T01:56:56;101543.01;;;-1.55;100.00
36454;BME280;22478;51.740;-1.314;2023-03-03T01:59:27;101549.44;;;-2.21;100.00
36454;BME280;22478;51.740;-1.314;2023-03-03T02:01:58;101556.19;;;-4.11;100.00
36454;BME280;22478;51.740;-1.314;2023-03-03T02:04:25;101560.32;;;-4.61;100.00
36454;BME280;22478;51.740;-1.314;2023-03-03T02:06:56;101560.01;;;-3.86;100.00
36454;BME280;22478;51.740;-1.314;2023-03-03T02:09:31;101559.26;;;-3.73;100.00
36454;BME280;22478;51.740;-1.314;2023-03-03T02:12:05;101553.50;;;-1.51;100.00
36454;BME280;22478;51.740;-1.314;2023-03-03T02:14:34;101562.51;;;-3.49;100.00
36454;BME280;22478;51.740;-1.314;2023-03-03T02:17:01;101563.38;;;-3.84;100.00
36454;BME280;22478;51.740;-1.314;2023-03-03T02:19:33;101562.04;;;-3.55;100.00
36454;BME280;22478;51.740;-1.314;2023-03-03T02:22:02;101562.49;;;-2.91;100.00
36454;BME280;22478;51.740;-1.314;2023-03-03T02:24:33;101557.59;;;-1.81;100.00
36454;BME280;22478;51.740;-1.314;2023-03-03T02:27:02;101558.52;;;-2.01;100.00
36454;BME280;22478;51.740;-1.314;2023-03-03T02:29:29;101554.01;;;-0.67;100.00
36454;BME280;22478;51.740;-1.314;2023-03-03T02:31:56;101549.89;;;-2.62;100.00
36454;BME280;22478;51.740;-1.314;2023-03-03T02:34:23;101560.21;;;-2.96;100.00
36454;BME280;22478;51.740;-1.314;2023-03-03T02:36:51;101559.22;;;-2.66;100.00
36454;BME280;22478;51.740;-1.314;2023-03-03T02:39:21;101560.10;;;-3.46;100.00
36454;BME280;22478;51.740;-1.314;2023-03-03T02:41:53;101556.84;;;-2.48;100.00
36454;BME280;22478;51.740;-1.314;2023-03-03T02:44:24;101556.56;;;-1.47;100.00
36454;BME280;22478;51.740;-1.314;2023-03-03T02:46:53;101555.57;;;-1.53;100.00
36454;BME280;22478;51.740;-1.314;2023-03-03T02:49:21;101555.06;;;-1.57;100.00
36454;BME280;22478;51.740;-1.314;2023-03-03T02:51:49;101556.29;;;-1.68;100.00
36454;BME280;22478;51.740;-1.314;2023-03-03T02:54:19;101560.95;;;-3.25;100.00
36454;BME280;22478;51.740;-1.314;2023-03-03T02:56:46;101557.81;;;-1.34;100.00
36454;BME280;22478;51.740;-1.314;2023-03-03T02:59:15;101557.87;;;-1.42;100.00
36454;BME280;22478;51.740;-1.314;2023-03-03T03:01:43;101555.93;;;-2.09;100.00
36454;BME280;22478;51.740;-1.314;2023-03-03T03:04:12;101558.80;;;-0.27;100.00
36454;BME280;22478;51.740;-1.314;2023-03-03T03:06:40;101564.52;;;-2.05;100.00
36454;BME280;22478;51.740;-1.314;2023-03-03T03:09:09;101564.24;;;-1.27;100.00
36454;BME280;22478;51.740;-1.314;2023-03-03T03:11:36;101564.33;;;-1.18;100.00
36454;BME280;22478;51.740;-1.314;2023-03-03T03:14:06;101563.22;;;-1.20;100.00
36454;BME280;22478;51.740;-1.314;2023-03-03T03:16:34;101565.22;;;-1.99;100.00
36454;BME280;22478;51.740;-1.314;2023-03-03T03:19:02;101572.08;;;-3.79;100.00
36454;BME280;22478;51.740;-1.314;2023-03-03T03:21:30;101569.35;;;-2.43;100.00
36454;BME280;22478;51.740;-1.314;2023-03-03T03:23:58;101568.08;;;-4.02;100.00
36454;BME280;22478;51.740;-1.314;2023-03-03T03:26:26;101575.86;;;-4.32;100.00
36454;BME280;22478;51.740;-1.314;2023-03-03T03:28:54;101570.07;;;-3.07;100.00
36454;BME280;22478;51.740;-1.314;2023-03-03T03:31:21;101567.49;;;-2.37;100.00
36454;BME280;22478;51.740;-1.314;2023-03-03T03:33:48;101573.94;;;-4.79;100.00
36454;BME280;22478;51.740;-1.314;2023-03-03T03:36:16;101563.29;;;-2.28;100.00
36454;BME280;22478;51.740;-1.314;2023-03-03T03:38:43;101564.86;;;-1.95;100.00
36454;BME280;22478;51.740;-1.314;2023-03-03T03:41:11;101561.39;;;-2.81;100.00
36454;BME280;22478;51.740;-1.314;2023-03-03T03:43:39;101565.19;;;-3.50;100.00
36454;BME280;22478;51.740;-1.314;2023-03-03T03:46:07;101564.05;;;-2.98;100.00
36454;BME280;22478;51.740;-1.314;2023-03-03T03:48:35;101557.08;;;-2.49;100.00
36454;BME280;22478;51.740;-1.314;2023-03-03T03:51:02;101555.84;;;-1.93;100.00
36454;BME280;22478;51.740;-1.314;2023-03-03T03:53:30;101565.33;;;-3.63;100.00
36454;BME280;22478;51.740;-1.314;2023-03-03T03:55:57;101565.17;;;-3.80;100.00
36454;BME280;22478;51.740;-1.314;2023-03-03T03:58:24;101564.25;;;-3.76;100.00
36454;BME280;22478;51.740;-1.314;2023-03-03T04:00:52;101560.18;;;-3.02;100.00
36454;BME280;22478;51.740;-1.314;2023-03-03T04:03:19;101557.14;;;-2.49;100.00
36454;BME280;22478;51.740;-1.314;2023-03-03T04:05:46;101560.30;;;-3.79;100.00
36454;BME280;22478;51.740;-1.314;2023-03-03T04:08:13;101565.83;;;-4.88;100.00
36454;BME280;22478;51.740;-1.314;2023-03-03T04:10:41;101559.72;;;-3.58;100.00
36454;BME280;22478;51.740;-1.314;2023-03-03T04:13:08;101556.81;;;-2.64;100.00
36454;BME280;22478;51.740;-1.314;2023-03-03T04:15:35;101558.43;;;-4.01;100.00
36454;BME280;22478;51.740;-1.314;2023-03-03T04:18:02;101553.72;;;-2.72;100.00
36454;BME280;22478;51.740;-1.314;2023-03-03T04:20:30;101558.42;;;-3.35;100.00
36454;BME280;22478;51.740;-1.314;2023-03-03T04:22:57;101557.40;;;-2.88;100.00
36454;BME280;22478;51.740;-1.314;2023-03-03T04:25:24;101561.28;;;-3.62;100.00
36454;BME280;22478;51.740;-1.314;2023-03-03T04:27:52;101567.46;;;-4.07;100.00
36454;BME280;22478;51.740;-1.314;2023-03-03T04:30:19;101564.09;;;-4.12;100.00
36454;BME280;22478;51.740;-1.314;2023-03-03T04:32:46;101568.55;;;-4.34;100.00
36454;BME280;22478;51.740;-1.314;2023-03-03T04:35:14;101557.73;;;-3.47;100.00
36454;BME280;22478;51.740;-1.314;2023-03-03T04:37:41;101551.21;;;-2.97;100.00
36454;BME280;22478;51.740;-1.314;2023-03-03T04:40:10;101557.95;;;-3.18;100.00
36454;BME280;22478;51.740;-1.314;2023-03-03T04:42:37;101565.30;;;-4.38;100.00
36454;BME280;22478;51.740;-1.314;2023-03-03T04:45:05;101568.34;;;-4.31;100.00
36454;BME280;22478;51.740;-1.314;2023-03-03T04:47:33;101556.98;;;-1.37;100.00
36454;BME280;22478;51.740;-1.314;2023-03-03T04:50:00;101563.61;;;-2.65;100.00
36454;BME280;22478;51.740;-1.314;2023-03-03T04:52:28;101560.18;;;-3.05;100.00
36454;BME280;22478;51.740;-1.314;2023-03-03T04:54:55;101557.66;;;-2.34;100.00
36454;BME280;22478;51.740;-1.314;2023-03-03T04:57:22;101554.72;;;-2.07;100.00
36454;BME280;22478;51.740;-1.314;2023-03-03T04:59:49;101556.71;;;-1.95;100.00
36454;BME280;22478;51.740;-1.314;2023-03-03T05:02:17;101559.85;;;-3.92;100.00
36454;BME280;22478;51.740;-1.314;2023-03-03T05:04:44;101559.82;;;-3.56;100.00
36454;BME280;22478;51.740;-1.314;2023-03-03T05:07:11;101557.04;;;-3.84;100.00
36454;BME280;22478;51.740;-1.314;2023-03-03T05:09:38;101558.09;;;-4.38;100.00
36454;BME280;22478;51.740;-1.314;2023-03-03T05:12:06;101555.56;;;-0.97;100.00
36454;BME280;22478;51.740;-1.314;2023-03-03T05:14:34;101556.08;;;-2.04;100.00
36454;BME280;22478;51.740;-1.314;2023-03-03T05:17:01;101556.38;;;-1.16;100.00
36454;BME280;22478;51.740;-1.314;2023-03-03T05:19:29;101559.52;;;-2.23;100.00
36454;BME280;22478;51.740;-1.314;2023-03-03T05:21:56;101558.33;;;-2.09;100.00
36454;BME280;22478;51.740;-1.314;2023-03-03T05:24:24;101562.54;;;-3.24;100.00
36454;BME280;22478;51.740;-1.314;2023-03-03T05:26:51;101559.76;;;-1.51;100.00
36454;BME280;22478;51.740;-1.314;2023-03-03T05:29:18;101558.94;;;-0.69;100.00
36454;BME280;22478;51.740;-1.314;2023-03-03T05:31:45;101554.89;;;-0.21;100.00
36454;BME280;22478;51.740;-1.314;2023-03-03T05:34:12;101556.67;;;-0.31;100.00
36454;BME280;22478;51.740;-1.314;2023-03-03T05:36:40;101559.64;;;-1.55;100.00
36454;BME280;22478;51.740;-1.314;2023-03-03T05:39:07;101563.70;;;-1.61;100.00
36454;BME280;22478;51.740;-1.314;2023-03-03T05:41:34;101561.81;;;-1.26;100.00
36454;BME280;22478;51.740;-1.314;2023-03-03T05:44:01;101561.00;;;-1.54;100.00
36454;BME280;22478;51.740;-1.314;2023-03-03T05:46:28;101562.32;;;-3.05;100.00
36454;BME280;22478;51.740;-1.314;2023-03-03T05:48:56;101556.68;;;-1.29;100.00
36454;BME280;22478;51.740;-1.314;2023-03-03T05:51:23;101552.73;;;-0.23;100.00
36454;BME280;22478;51.740;-1.314;2023-03-03T05:53:50;101555.60;;;-0.59;100.00
36454;BME280;22478;51.740;-1.314;2023-03-03T05:56:18;101562.54;;;-1.38;100.00
36454;BME280;22478;51.740;-1.314;2023-03-03T05:58:45;101565.35;;;-3.28;100.00
36454;BME280;22478;51.740;-1.314;2023-03-03T06:01:12;101567.44;;;-4.33;100.00
36454;BME280;22478;51.740;-1.314;2023-03-03T06:03:39;101565.27;;;-3.77;100.00
36454;BME280;22478;51.740;-1.314;2023-03-03T06:06:07;101561.92;;;-2.72;100.00
36454;BME280;22478;51.740;-1.314;2023-03-03T06:08:34;101566.23;;;-2.79;100.00
36454;BME280;22478;51.740;-1.314;2023-03-03T06:11:01;101566.69;;;-3.05;100.00
36454;BME280;22478;51.740;-1.314;2023-03-03T06:13:28;101567.51;;;-3.13;100.00
36454;BME280;22478;51.740;-1.314;2023-03-03T06:15:56;101565.74;;;-4.01;100.00
36454;BME280;22478;51.740;-1.314;2023-03-03T06:18:23;101566.57;;;-3.00;100.00
36454;BME280;22478;51.740;-1.314;2023-03-03T06:20:51;101558.96;;;-1.53;100.00
36454;BME280;22478;51.740;-1.314;2023-03-03T06:23:18;101566.25;;;-3.21;100.00
36454;BME280;22478;51.740;-1.314;2023-03-03T06:25:46;101559.72;;;-1.93;100.00
36454;BME280;22478;51.740;-1.314;2023-03-03T06:28:13;101559.34;;;-1.76;100.00
36454;BME280;22478;51.740;-1.314;2023-03-03T06:30:41;101554.74;;;0.28;100.00
36454;BME280;22478;51.740;-1.314;2023-03-03T06:33:07;101569.23;;;-4.76;100.00
36454;BME280;22478;51.740;-1.314;2023-03-03T06:35:35;101568.90;;;-2.78;100.00
36454;BME280;22478;51.740;-1.314;2023-03-03T06:38:02;101571.86;;;-3.62;100.00
36454;BME280;22478;51.740;-1.314;2023-03-03T06:40:30;101568.03;;;-2.82;100.00
36454;BME280;22478;51.740;-1.314;2023-03-03T06:42:57;101574.44;;;-4.15;100.00
36454;BME280;22478;51.740;-1.314;2023-03-03T06:45:24;101566.81;;;-1.25;100.00
36454;BME280;22478;51.740;-1.314;2023-03-03T06:47:51;101569.25;;;-1.85;100.00
36454;BME280;22478;51.740;-1.314;2023-03-03T06:50:19;101577.03;;;-4.29;100.00
36454;BME280;22478;51.740;-1.314;2023-03-03T06:52:47;101572.89;;;-1.72;100.00
36454;BME280;22478;51.740;-1.314;2023-03-03T06:55:20;101582.46;;;-3.28;100.00
36454;BME280;22478;51.740;-1.314;2023-03-03T06:57:48;101581.04;;;-2.11;100.00
36454;BME280;22478;51.740;-1.314;2023-03-03T07:00:18;101590.67;;;-4.05;100.00
36454;BME280;22478;51.740;-1.314;2023-03-03T07:02:55;101584.47;;;-2.42;100.00
36454;BME280;22478;51.740;-1.314;2023-03-03T07:05:25;101583.63;;;-0.04;100.00
36454;BME280;22478;51.740;-1.314;2023-03-03T07:07:53;101589.02;;;-2.24;100.00
36454;BME280;22478;51.740;-1.314;2023-03-03T07:10:23;101592.22;;;-0.15;100.00
36454;BME280;22478;51.740;-1.314;2023-03-03T07:12:51;101594.50;;;-0.40;100.00
36454;BME280;22478;51.740;-1.314;2023-03-03T07:15:22;101594.97;;;-2.07;100.00
36454;BME280;22478;51.740;-1.314;2023-03-03T07:17:55;101600.73;;;-2.60;100.00
36454;BME280;22478;51.740;-1.314;2023-03-03T07:20:24;101603.74;;;-2.04;100.00
36454;BME280;22478;51.740;-1.314;2023-03-03T07:22:53;101598.73;;;0.20;100.00
36454;BME280;22478;51.740;-1.314;2023-03-03T07:25:27;101609.11;;;-3.03;100.00
36454;BME280;22478;51.740;-1.314;2023-03-03T07:27:59;101611.88;;;-2.87;100.00
36454;BME280;22478;51.740;-1.314;2023-03-03T07:30:37;101607.52;;;-0.62;100.00
36454;BME280;22478;51.740;-1.314;2023-03-03T07:33:07;101608.47;;;-0.45;100.00
36454;BME280;22478;51.740;-1.314;2023-03-03T07:35:44;101617.41;;;-3.38;100.00
36454;BME280;22478;51.740;-1.314;2023-03-03T07:38:19;101616.36;;;-3.87;100.00
36454;BME280;22478;51.740;-1.314;2023-03-03T07:40:51;101617.26;;;-3.06;100.00
36454;BME280;22478;51.740;-1.314;2023-03-03T07:43:29;101623.97;;;-3.05;100.00
36454;BME280;22478;51.740;-1.314;2023-03-03T07:46:02;101621.81;;;-2.10;100.00
36454;BME280;22478;51.740;-1.314;2023-03-03T07:48:33;101621.25;;;-0.86;100.00
36454;BME280;22478;51.740;-1.314;2023-03-03T07:51:04;101625.21;;;-2.34;100.00
36454;BME280;22478;51.740;-1.314;2023-03-03T07:53:34;101631.55;;;-2.80;100.00
36454;BME280;22478;51.740;-1.314;2023-03-03T07:56:04;101628.08;;;0.47;100.00
36454;BME280;22478;51.740;-1.314;2023-03-03T07:58:37;101634.25;;;-2.94;100.00
36454;BME280;22478;51.740;-1.314;2023-03-03T08:01:38;101638.70;;;-2.11;100.00
36454;BME280;22478;51.740;-1.314;2023-03-03T08:04:16;101640.17;;;-2.03;100.00
36454;BME280;22478;51.740;-1.314;2023-03-03T08:06:48;101657.22;;;-5.05;100.00
36454;BME280;22478;51.740;-1.314;2023-03-03T08:09:43;101657.97;;;-4.66;100.00
36454;BME280;22478;51.740;-1.314;2023-03-03T08:12:20;101642.01;;;-0.59;100.00
36454;BME280;22478;51.740;-1.314;2023-03-03T08:14:51;101651.71;;;-2.37;100.00
36454;BME280;22478;51.740;-1.314;2023-03-03T08:17:20;101655.88;;;-3.50;100.00
36454;BME280;22478;51.740;-1.314;2023-03-03T08:19:48;101659.43;;;-3.11;100.00
36454;BME280;22478;51.740;-1.314;2023-03-03T08:22:18;101651.47;;;-1.49;100.00
36454;BME280;22478;51.740;-1.314;2023-03-03T08:24:45;101667.12;;;-4.16;100.00
36454;BME280;22478;51.740;-1.314;2023-03-03T08:27:12;101654.27;;;-0.57;100.00
36454;BME280;22478;51.740;-1.314;2023-03-03T08:29:39;101657.58;;;-3.36;100.00
36454;BME280;22478;51.740;-1.314;2023-03-03T08:32:06;101657.01;;;-3.09;100.00
36454;BME280;22478;51.740;-1.314;2023-03-03T08:34:34;101659.65;;;-1.22;100.00
36454;BME280;22478;51.740;-1.314;2023-03-03T08:37:01;101661.09;;;-1.16;100.00
36454;BME280;22478;51.740;-1.314;2023-03-03T08:39:28;101674.25;;;-3.48;100.00
36454;BME280;22478;51.740;-1.314;2023-03-03T08:41:55;101674.79;;;-2.94;100.00
36454;BME280;22478;51.740;-1.314;2023-03-03T08:44:23;101674.32;;;-2.71;100.00
36454;BME280;22478;51.740;-1.314;2023-03-03T08:46:50;101672.76;;;-1.22;100.00
36454;BME280;22478;51.740;-1.314;2023-03-03T08:49:17;101669.50;;;0.17;100.00
36454;BME280;22478;51.740;-1.314;2023-03-03T08:51:44;101681.18;;;-3.70;100.00
36454;BME280;22478;51.740;-1.314;2023-03-03T08:54:11;101678.85;;;-2.12;100.00
36454;BME280;22478;51.740;-1.314;2023-03-03T08:56:38;101681.89;;;-1.81;100.00
36454;BME280;22478;51.740;-1.314;2023-03-03T08:59:06;101688.07;;;-3.79;100.00
36454;BME280;22478;51.740;-1.314;2023-03-03T09:01:34;101678.29;;;-0.37;100.00
36454;BME280;22478;51.740;-1.314;2023-03-03T09:04:01;101679.41;;;-2.13;100.00
36454;BME280;22478;51.740;-1.314;2023-03-03T09:06:29;101679.49;;;-3.10;100.00
36454;BME280;22478;51.740;-1.314;2023-03-03T09:08:56;101676.87;;;-3.75;100.00
36454;BME280;22478;51.740;-1.314;2023-03-03T09:11:25;101674.55;;;-2.64;100.00
36454;BME280;22478;51.740;-1.314;2023-03-03T09:14:01;101677.83;;;-2.70;100.00
36454;BME280;22478;51.740;-1.314;2023-03-03T09:16:37;101674.91;;;0.65;100.00
36454;BME280;22478;51.740;-1.314;2023-03-03T09:19:18;101677.11;;;-0.81;100.00
36454;BME280;22478;51.740;-1.314;2023-03-03T09:21:47;101681.81;;;-2.86;100.00
36454;BME280;22478;51.740;-1.314;2023-03-03T09:24:23;101678.64;;;0.23;100.00
36454;BME280;22478;51.740;-1.314;2023-03-03T09:26:51;101683.74;;;-2.34;100.00
36454;BME280;22478;51.740;-1.314;2023-03-03T09:29:24;101688.88;;;-2.86;100.00
36454;BME280;22478;51.740;-1.314;2023-03-03T09:31:53;101698.97;;;-3.74;100.00
36454;BME280;22478;51.740;-1.314;2023-03-03T09:34:23;101702.75;;;-4.14;100.00
36454;BME280;22478;51.740;-1.314;2023-03-03T09:36:52;101691.59;;;-2.48;100.00
36454;BME280;22478;51.740;-1.314;2023-03-03T09:39:22;101703.69;;;-4.03;100.00
36454;BME280;22478;51.740;-1.314;2023-03-03T09:43:02;101706.39;;;-3.97;100.00
36454;BME280;22478;51.740;-1.314;2023-03-03T09:45:43;101696.78;;;-1.75;100.00
36454;BME280;22478;51.740;-1.314;2023-03-03T09:48:43;101699.73;;;-1.67;100.00
36454;BME280;22478;51.740;-1.314;2023-03-03T09:51:28;101711.28;;;-4.66;100.00
36454;BME280;22478;51.740;-1.314;2023-03-03T09:54:11;101705.79;;;-2.48;100.00
36454;BME280;22478;51.740;-1.314;2023-03-03T09:56:43;101704.08;;;-1.87;100.00
36454;BME280;22478;51.740;-1.314;2023-03-03T09:59:24;101718.54;;;-4.19;100.00
36454;BME280;22478;51.740;-1.314;2023-03-03T10:02:03;101719.07;;;-3.20;100.00
36454;BME280;22478;51.740;-1.314;2023-03-03T10:04:43;101706.73;;;-1.82;100.00
36454;BME280;22478;51.740;-1.314;2023-03-03T10:07:24;101707.62;;;-2.29;100.00
36454;BME280;22478;51.740;-1.314;2023-03-03T10:10:11;101710.95;;;-2.12;100.00
36454;BME280;22478;51.740;-1.314;2023-03-03T10:12:50;101712.29;;;-2.55;100.00
36454;BME280;22478;51.740;-1.314;2023-03-03T10:15:31;101715.90;;;-3.32;100.00
36454;BME280;22478;51.740;-1.314;2023-03-03T10:18:13;101715.44;;;-0.75;100.00
36454;BME280;22478;51.740;-1.314;2023-03-03T10:20:51;101718.61;;;-2.19;100.00
36454;BME280;22478;51.740;-1.314;2023-03-03T10:23:35;101715.83;;;-2.33;100.00
36454;BME280;22478;51.740;-1.314;2023-03-03T10:26:13;101724.14;;;-4.15;100.00
36454;BME280;22478;51.740;-1.314;2023-03-03T10:29:06;101716.53;;;-2.31;100.00
36454;BME280;22478;51.740;-1.314;2023-03-03T10:31:47;101713.19;;;-1.30;100.00
36454;BME280;22478;51.740;-1.314;2023-03-03T10:34:28;101716.13;;;-2.15;100.00
36454;BME280;22478;51.740;-1.314;2023-03-03T10:37:01;101719.53;;;-2.73;100.00
36454;BME280;22478;51.740;-1.314;2023-03-03T10:39:46;101713.87;;;-0.58;100.00
36454;BME280;22478;51.740;-1.314;2023-03-03T10:42:33;101723.08;;;-3.58;100.00
36454;BME280;22478;51.740;-1.314;2023-03-03T10:45:14;101726.32;;;-2.77;100.00
36454;BME280;22478;51.740;-1.314;2023-03-03T10:47:57;101734.45;;;-3.46;100.00
36454;BME280;22478;51.740;-1.314;2023-03-03T10:50:34;101725.34;;;-2.19;100.00
36454;BME280;22478;51.740;-1.314;2023-03-03T10:53:20;101726.77;;;-1.54;100.00
36454;BME280;22478;51.740;-1.314;2023-03-03T10:55:55;101738.44;;;-3.05;100.00
36454;BME280;22478;51.740;-1.314;2023-03-03T10:58:37;101732.91;;;-2.34;100.00
36454;BME280;22478;51.740;-1.314;2023-03-03T11:01:12;101727.54;;;-2.08;100.00
36454;BME280;22478;51.740;-1.314;2023-03-03T11:04:06;101722.34;;;-0.10;100.00
36454;BME280;22478;51.740;-1.314;2023-03-03T11:06:44;101727.50;;;-2.12;100.00
36454;BME280;22478;51.740;-1.314;2023-03-03T11:09:23;101722.93;;;-0.73;100.00
36454;BME280;22478;51.740;-1.314;2023-03-03T11:11:59;101731.16;;;-1.82;100.00
36454;BME280;22478;51.740;-1.314;2023-03-03T11:14:35;101733.36;;;-2.71;100.00
36454;BME280;22478;51.740;-1.314;2023-03-03T11:17:08;101739.50;;;-3.59;100.00
36454;BME280;22478;51.740;-1.314;2023-03-03T11:19:52;101735.54;;;-2.16;100.00
36454;BME280;22478;51.740;-1.314;2023-03-03T11:22:33;101734.60;;;-3.56;100.00
36454;BME280;22478;51.740;-1.314;2023-03-03T11:25:14;101744.35;;;-3.92;100.00
36454;BME280;22478;51.740;-1.314;2023-03-03T11:27:58;101731.97;;;-0.09;100.00
36454;BME280;22478;51.740;-1.314;2023-03-03T11:30:34;101744.86;;;-2.86;100.00
36454;BME280;22478;51.740;-1.314;2023-03-03T11:33:05;101754.86;;;-3.33;100.00
36454;BME280;22478;51.740;-1.314;2023-03-03T11:35:42;101750.52;;;-3.28;100.00
36454;BME280;22478;51.740;-1.314;2023-03-03T11:38:23;101741.53;;;-1.08;100.00
36454;BME280;22478;51.740;-1.314;2023-03-03T11:41:00;101735.86;;;-1.08;100.00
36454;BME280;22478;51.740;-1.314;2023-03-03T11:43:30;101736.67;;;-0.49;100.00
36454;BME280;22478;51.740;-1.314;2023-03-03T11:46:03;101737.64;;;-1.07;100.00
36454;BME280;22478;51.740;-1.314;2023-03-03T11:48:39;101747.02;;;-3.47;100.00
36454;BME280;22478;51.740;-1.314;2023-03-03T11:51:13;101744.70;;;-1.34;100.00
36454;BME280;22478;51.740;-1.314;2023-03-03T11:53:54;101748.69;;;-1.68;100.00
36454;BME280;22478;51.740;-1.314;2023-03-03T11:56:26;101749.48;;;-2.53;100.00
36454;BME280;22478;51.740;-1.314;2023-03-03T11:59:11;101748.66;;;-3.29;100.00
36454;BME280;22478;51.740;-1.314;2023-03-03T12:01:45;101747.94;;;-1.50;100.00
36454;BME280;22478;51.740;-1.314;2023-03-03T12:04:19;101742.75;;;-1.22;100.00
36454;BME280;22478;51.740;-1.314;2023-03-03T12:07:01;101745.95;;;-2.76;100.00
36454;BME280;22478;51.740;-1.314;2023-03-03T12:09:38;101745.07;;;-2.28;100.00
36454;BME280;22478;51.740;-1.314;2023-03-03T12:12:14;101746.18;;;-3.27;100.00
36454;BME280;22478;51.740;-1.314;2023-03-03T12:14:52;101734.60;;;-1.14;100.00
36454;BME280;22478;51.740;-1.314;2023-03-03T12:17:41;101731.49;;;-1.43;100.00
36454;BME280;22478;51.740;-1.314;2023-03-03T12:20:17;101723.76;;;-0.87;100.00
36454;BME280;22478;51.740;-1.314;2023-03-03T12:22:59;101724.05;;;-0.88;100.00
36454;BME280;22478;51.740;-1.314;2023-03-03T12:25:34;101721.84;;;-0.28;100.00
36454;BME280;22478;51.740;-1.314;2023-03-03T12:28:06;101729.10;;;-2.52;100.00
36454;BME280;22478;51.740;-1.314;2023-03-03T12:30:51;101724.72;;;-1.76;100.00
36454;BME280;22478;51.740;-1.314;2023-03-03T12:33:35;101717.36;;;-1.21;100.00
36454;BME280;22478;51.740;-1.314;2023-03-03T12:36:15;101718.82;;;-1.45;100.00
36454;BME280;22478;51.740;-1.314;2023-03-03T12:38:49;101722.19;;;-0.91;100.00
36454;BME280;22478;51.740;-1.314;2023-03-03T12:41:24;101724.54;;;-2.14;100.00
36454;BME280;22478;51.740;-1.314;2023-03-03T12:43:58;101724.54;;;-2.51;100.00
36454;BME280;22478;51.740;-1.314;2023-03-03T12:46:38;101717.48;;;-1.24;100.00
36454;BME280;22478;51.740;-1.314;2023-03-03T12:49:07;101720.83;;;-2.77;100.00
36454;BME280;22478;51.740;-1.314;2023-03-03T12:51:44;101720.81;;;-2.63;100.00
36454;BME280;22478;51.740;-1.314;2023-03-03T12:54:24;101723.09;;;-2.58;100.00